Time;durP1;ratioP1;P1;durP2;ratioP2;P2;SDS_P1;SDS_P2;PMS_P1;PMS_P2;Temp;Humidity;BMP_temperature;BMP_pressure;BME280_temperature;BME280_humidity;BME280_pressure;Samples;Min_cycle;Max_cycle;Signal;HPM_P1;HPM_P2
2022/01/09 00:00:18;;;;;;;;;;;;;;;3.02;46.48;99278.56;4395982;32;20056;-75
2022/01/09 00:02:47;;;;;;;;;;;;;;;2.91;46.32;99277.31;4389780;32;19985;-75
2022/01/09 00:05:15;;;;;;;;;;;;;;;2.70;46.91;99278.25;4389500;32;19966;-75
2022/01/09 00:07:42;;;;;;;;;;;;;;;2.92;46.47;99271.38;4384870;32;20324;-75
2022/01/09 00:10:09;;;;;;;;;;;;;;;2.89;46.48;99268.72;4392856;32;19997;-75
2022/01/09 00:12:36;;;;;;;;;;;;;;;2.75;46.45;99271.63;4385201;32;20035;-75
2022/01/09 00:15:04;;;;;;;;;;;;;;;2.71;46.78;99263.78;4385531;32;20746;-75
2022/01/09 00:20:17;;;;;;;;;;;;;;;2.39;47.79;99259.97;4394651;32;20003;-74
2022/01/09 00:22:49;;;;;;;;;;;;;;;2.53;47.42;99258.84;4395790;32;20017;-74
2022/01/09 00:25:18;;;;;;;;;;;;;;;2.71;47.14;99249.34;4396924;32;19970;-74
2022/01/09 00:27:45;;;;;;;;;;;;;;;2.50;47.36;99243.41;4387754;32;19986;-75
2022/01/09 00:30:13;;;;;;;;;;;;;;;2.39;47.69;99244.66;4386475;32;19982;-75
2022/01/09 00:32:40;;;;;;;0.00;0.00;;;;;;;2.41;47.15;99237.94;4390263;32;20285;-75
2022/01/09 00:35:10;;;;;;;0.00;0.00;;;;;;;1.96;48.58;99236.19;4412403;32;20261;-75
2022/01/09 00:37:39;;;;;;;0.00;0.00;;;;;;;2.26;47.34;99233.09;4414650;32;20761;-74
2022/01/09 00:40:10;;;;;;;0.00;0.00;;;;;;;2.51;47.03;99237.47;4413994;32;20399;-74
2022/01/09 00:42:38;;;;;;;0.00;0.00;;;;;;;2.42;46.93;99234.56;4406314;32;20285;-74
2022/01/09 00:45:06;;;;;;;0.00;0.00;;;;;;;2.52;46.81;99231.53;4407131;32;21589;-73
2022/01/09 00:47:33;;;;;;;0.00;0.00;;;;;;;2.47;46.76;99243.28;4413997;32;20289;-73
2022/01/09 00:50:00;;;;;;;0.00;0.00;;;;;;;2.24;46.95;99235.59;4414841;32;20269;-74
2022/01/09 00:52:27;;;;;;;0.00;0.00;;;;;;;2.45;46.85;99229.56;4416081;32;20278;-74
2022/01/09 00:54:54;;;;;;;0.00;0.00;;;;;;;2.30;47.50;99225.63;4420349;32;20291;-74
2022/01/09 00:57:21;;;;;;;0.00;0.00;;;;;;;2.20;47.76;99218.44;4412967;32;20296;-73
2022/01/09 00:59:48;;;;;;;0.00;0.00;;;;;;;2.49;46.81;99216.09;4414265;32;20356;-73
2022/01/09 01:02:15;;;;;;;0.10;0.10;;;;;;;2.30;47.96;99212.88;4414109;32;20265;-74
2022/01/09 01:04:42;;;;;;;0.00;0.00;;;;;;;2.45;47.40;99214.25;4414750;32;20279;-73
2022/01/09 01:07:10;;;;;;;0.00;0.00;;;;;;;2.32;47.51;99203.56;4414041;32;20344;-74
2022/01/09 01:09:37;;;;;;;0.00;0.00;;;;;;;2.40;47.46;99200.44;4417907;32;21114;-74
2022/01/09 01:12:04;;;;;;;0.20;0.20;;;;;;;2.41;47.70;99197.06;4412533;32;20291;-74
2022/01/09 01:14:32;;;;;;;0.10;0.10;;;;;;;2.58;47.03;99185.78;4423345;32;20259;-74
2022/01/09 01:16:59;;;;;;;0.00;0.00;;;;;;;2.70;46.78;99185.37;4415637;32;20277;-74
2022/01/09 01:19:27;;;;;;;0.00;0.00;;;;;;;2.76;46.61;99183.91;4414291;32;20265;-74
2022/01/09 01:21:54;;;;;;;0.00;0.00;;;;;;;2.62;47.36;99182.56;4413779;32;21102;-73
2022/01/09 01:24:22;;;;;;;0.00;0.00;;;;;;;2.49;48.13;99170.13;4422335;32;20271;-74
2022/01/09 01:26:49;;;;;;;0.00;0.00;;;;;;;2.78;47.45;99163.53;4414339;32;20370;-74
2022/01/09 01:29:17;;;;;;;0.00;0.00;;;;;;;2.86;47.24;99166.38;4413677;32;20727;-74
2022/01/09 01:31:46;;;;;;;0.00;0.00;;;;;;;2.40;48.47;99159.59;4426644;32;20287;-74
2022/01/09 01:34:14;;;;;;;0.00;0.00;;;;;;;2.69;48.11;99158.97;4429025;32;20267;-74
2022/01/09 01:36:41;;;;;;;0.00;0.00;;;;;;;2.43;48.70;99149.50;4429366;32;20569;-74
2022/01/09 01:39:09;;;;;;;0.00;0.00;;;;;;;2.61;48.26;99152.69;4423779;32;20372;-74
2022/01/09 01:41:36;;;;;;;0.00;0.00;;;;;;;2.84;46.89;99147.53;4413849;32;20269;-74
2022/01/09 01:44:03;;;;;;;0.00;0.00;;;;;;;2.88;46.63;99144.31;4393775;32;21155;-74
2022/01/09 01:46:31;;;;;;;0.03;0.03;;;;;;;2.95;46.26;99130.91;4396059;32;20348;-74
2022/01/09 01:48:57;;;;;;;0.00;0.00;;;;;;;2.86;46.55;99138.25;4398345;32;20295;-74
2022/01/09 01:51:24;;;;;;;0.00;0.00;;;;;;;2.89;46.81;99135.81;4406857;32;20280;-74
2022/01/09 01:53:54;;;;;;;0.20;0.20;;;;;;;2.82;46.70;99138.97;4397759;32;20259;-75
2022/01/09 01:56:23;;;;;;;0.20;0.20;;;;;;;2.83;46.73;99133.03;4408647;32;20275;-74
2022/01/09 01:58:51;;;;;;;0.03;0.03;;;;;;;2.31;47.53;99139.69;4398405;32;20279;-74
2022/01/09 02:01:18;;;;;;;0.30;0.30;;;;;;;2.54;46.36;99127.75;4397781;32;20282;-74
2022/01/09 02:03:45;;;;;;;0.80;0.80;;;;;;;2.67;46.49;99124.81;4404165;32;20262;-74
2022/01/09 02:06:16;;;;;;;1.27;1.27;;;;;;;2.46;47.00;99126.63;4397269;32;20308;-74
2022/01/09 02:08:43;;;;;;;1.37;1.37;;;;;;;2.31;47.22;99125.22;4406210;32;20279;-75
2022/01/09 02:11:13;;;;;;;1.10;1.10;;;;;;;2.22;47.30;99117.22;4410168;32;20341;-75
2022/01/09 02:13:41;;;;;;;0.50;0.50;;;;;;;2.35;46.53;99112.56;4416856;32;20269;-74
2022/01/09 02:16:16;;;;;;;0.95;0.95;;;;;;;2.12;47.40;99117.69;4406084;32;20344;-75
2022/01/09 02:18:45;;;;;;;0.50;0.50;;;;;;;2.07;47.26;99108.97;4412888;32;20269;-74
2022/01/09 02:21:13;;;;;;;0.20;0.20;;;;;;;2.18;46.50;99107.72;4413048;32;20302;-74
2022/01/09 02:23:44;;;;;;;0.50;0.50;;;;;;;1.99;46.80;99105.28;4413022;32;20266;-75
2022/01/09 02:26:17;;;;;;;0.40;0.40;;;;;;;1.91;47.18;99101.53;4413399;32;20308;-75
2022/01/09 02:28:45;;;;;;;0.40;0.40;;;;;;;2.01;46.79;99093.41;4409928;32;20326;-75
2022/01/09 02:31:13;;;;;;;0.50;0.50;;;;;;;1.94;47.09;99096.56;4409338;32;20375;-74
2022/01/09 02:33:40;;;;;;;0.70;0.70;;;;;;;2.11;46.30;99103.19;4408820;32;20271;-74
2022/01/09 02:36:07;;;;;;;78.37;70.77;;;;;;;2.26;45.88;99093.53;4398089;32;20342;-74
2022/01/09 02:38:35;;;;;;;176.07;136.45;;;;;;;1.79;46.98;99097.72;4401835;32;20295;-74
2022/01/09 02:41:02;;;;;;;186.07;137.43;;;;;;;2.01;46.96;99098.53;4417672;32;20329;-75
2022/01/09 02:43:29;;;;;;;187.60;138.68;;;;;;;1.97;46.94;99092.44;4410796;32;20263;-74
2022/01/09 02:46:14;;;;;;;177.05;136.73;;;;;;;1.81;47.44;99090.12;4399886;32;20295;-75
2022/01/09 02:48:41;;;;;;;194.40;139.85;;;;;;;1.82;46.72;99086.78;4413284;32;20802;-75
2022/01/09 02:51:13;;;;;;;225.10;148.67;;;;;;;1.41;47.83;99092.81;4391945;32;20362;-75
2022/01/09 02:53:41;;;;;;;214.63;148.63;;;;;;;1.54;47.44;99083.12;4407642;32;20360;-74
2022/01/09 02:56:08;;;;;;;202.65;143.30;;;;;;;1.80;46.80;99084.16;4410420;32;20299;-74
2022/01/09 02:58:37;;;;;;;183.57;136.73;;;;;;;1.85;46.60;99085.22;4410270;32;20271;-75
2022/01/09 03:01:06;;;;;;;180.63;136.40;;;;;;;2.03;45.85;99079.03;4397628;32;20322;-74
2022/01/09 03:03:34;;;;;;;199.32;142.25;;;;;;;1.70;46.24;99084.63;4398175;32;20263;-75
2022/01/09 03:06:01;;;;;;;227.38;148.60;;;;;;;1.65;46.40;99081.00;4402755;32;20307;-74
2022/01/09 03:08:28;;;;;;;256.55;157.27;;;;;;;1.34;47.51;99072.16;4406790;32;20651;-75
2022/01/09 03:10:55;;;;;;;319.20;184.37;;;;;;;1.63;46.24;99075.00;4389550;32;20283;-74
2022/01/09 03:13:22;;;;;;;269.10;161.75;;;;;;;1.36;46.87;99070.50;4410473;32;20317;-75
2022/01/09 03:15:50;;;;;;;305.70;180.75;;;;;;;1.38;47.00;99074.00;4408132;32;20274;-74
2022/01/09 03:18:17;;;;;;;293.50;171.00;;;;;;;1.30;46.86;99065.16;4410107;32;20267;-74
2022/01/09 03:20:44;;;;;;;292.48;171.52;;;;;;;1.43;46.50;99063.13;4398441;32;20299;-74
2022/01/09 03:23:12;;;;;;;315.87;183.60;;;;;;;1.55;46.24;99053.41;4410352;32;20660;-74
2022/01/09 03:25:39;;;;;;;309.42;184.07;;;;;;;1.25;46.96;99050.53;4400072;32;20307;-75
2022/01/09 03:28:06;;;;;;;330.58;191.35;;;;;;;1.32;46.92;99053.38;4416955;32;20299;-74
2022/01/09 03:30:33;;;;;;;334.15;190.48;;;;;;;1.03;47.22;99052.19;4410959;32;20656;-74
2022/01/09 03:33:00;;;;;;;308.15;180.37;;;;;;;1.17;46.87;99050.19;4410386;32;20613;-75
2022/01/09 03:35:28;;;;;;;336.73;193.07;;;;;;;1.27;46.53;99052.31;4399039;32;21026;-74
2022/01/09 03:37:56;;;;;;;407.57;198.83;;;;;;;1.47;46.03;99054.78;4410214;32;20739;-75
2022/01/09 03:40:25;;;;;;;445.08;204.95;;;;;;;1.70;45.24;99048.91;4410544;32;20354;-75
2022/01/09 03:42:52;;;;;;;462.48;205.95;;;;;;;1.82;44.91;99046.81;4403726;32;20283;-75
2022/01/09 03:45:21;;;;;;;490.75;208.80;;;;;;;1.66;45.33;99056.34;4410535;32;20275;-74
2022/01/09 03:47:50;;;;;;;477.42;207.68;;;;;;;1.59;45.28;99060.34;4405717;32;20619;-74
2022/01/09 03:50:17;;;;;;;443.60;206.85;;;;;;;1.69;44.84;99054.81;4425332;32;20312;-75
2022/01/09 03:52:48;;;;;;;488.85;210.38;;;;;;;1.45;45.81;99059.81;4407394;32;20541;-75
2022/01/09 03:55:19;;;;;;;440.58;206.35;;;;;;;1.79;44.95;99056.91;4399196;32;20294;-75
2022/01/09 03:57:47;;;;;;;425.77;202.13;;;;;;;1.61;45.58;99061.28;4399427;32;20279;-75
2022/01/09 04:00:16;;;;;;;398.07;200.57;;;;;;;1.41;45.98;99052.00;4403054;32;20299;-75
2022/01/09 04:02:45;;;;;;;446.02;203.75;;;;;;;1.17;46.96;99057.84;4399993;32;20321;-75
2022/01/09 04:05:12;;;;;;;427.75;204.35;;;;;;;1.32;46.51;99043.16;4401388;32;20369;-74
2022/01/09 04:07:39;;;;;;;397.58;201.00;;;;;;;1.22;46.66;99033.41;4404394;32;20297;-74
2022/01/09 04:10:22;;;;;;;432.05;204.40;;;;;;;1.15;46.82;99034.00;4400450;32;20301;-74
2022/01/09 04:12:51;;;;;;;470.23;204.73;;;;;;;0.85;47.30;99029.38;4405687;32;20275;-75
2022/01/09 04:15:18;;;;;;;466.40;206.68;;;;;;;1.12;46.29;99019.44;4410530;32;20640;-74
2022/01/09 04:20:13;;;;;;;450.38;204.30;;;;;;;1.35;45.18;99017.78;4399126;32;20309;-74
2022/01/09 04:22:40;;;;;;;471.75;208.02;;;;;;;0.97;46.17;99012.84;4407821;32;20318;-74
2022/01/09 04:25:08;;;;;;;473.25;211.93;;;;;;;1.18;45.68;99013.69;4400482;32;20296;-74
2022/01/09 04:27:35;;;;;;;479.12;209.60;;;;;;;1.20;45.47;99012.09;4401894;32;20306;-74
2022/01/09 04:30:04;;;;;;;491.50;209.65;;;;;;;1.26;45.29;99019.97;4412588;32;20320;-74
2022/01/09 04:32:32;;;;;;;461.25;205.37;;;;;;;1.17;45.76;99011.97;4399463;32;20288;-74
2022/01/09 04:34:59;;;;;;;441.70;205.70;;;;;;;1.27;45.84;99018.28;4412710;32;20289;-74
2022/01/09 04:37:27;;;;;;;431.02;201.77;;;;;;;1.44;45.30;99019.84;4412863;32;20657;-74
2022/01/09 04:39:55;;;;;;;355.05;194.93;;;;;;;1.34;46.00;99005.88;4407958;32;20275;-75
2022/01/09 04:42:28;;;;;;;351.73;193.07;;;;;;;1.57;45.50;99001.66;4410884;32;20273;-74
2022/01/09 04:44:56;;;;;;;352.02;191.62;;;;;;;1.23;45.92;99008.78;4412083;32;20289;-77
2022/01/09 04:47:23;;;;;;;376.80;194.68;;;;;;;1.36;45.47;99006.78;4405585;32;20379;-74
2022/01/09 04:49:50;;;;;;;374.27;193.15;;;;;;;1.04;46.31;99004.66;4398759;32;20332;-74
2022/01/09 04:52:21;;;;;;;397.02;198.68;;;;;;;1.01;45.99;99004.53;4399004;32;20340;-74
2022/01/09 04:54:48;;;;;;;402.90;197.65;;;;;;;1.22;45.96;99007.06;4407519;32;20346;-74
2022/01/09 04:57:15;;;;;;;463.65;208.55;;;;;;;1.04;46.11;99014.84;4406174;32;20410;-74
2022/01/09 04:59:42;;;;;;;477.62;205.35;;;;;;;0.69;46.54;99002.37;4409181;32;20271;-74
2022/01/09 05:02:09;;;;;;;505.40;206.45;;;;;;;0.99;45.92;99001.94;4398503;32;20267;-74
2022/01/09 05:04:36;;;;;;;534.67;213.30;;;;;;;0.89;46.04;99000.69;4170349;32;20311;-76
2022/01/09 05:07:03;;;;;;;520.90;211.30;;;;;;;0.30;47.77;98996.50;4160014;32;20290;-75
2022/01/09 05:09:30;;;;;;;504.25;208.93;;;;;;;0.85;46.22;99006.44;4180988;32;20290;-74
2022/01/09 05:11:57;;;;;;;496.17;209.48;;;;;;;0.80;46.26;99005.41;4425966;32;20315;-74
2022/01/09 05:14:25;;;;;;;487.73;206.10;;;;;;;1.09;45.69;99013.34;4398537;32;20279;-74
2022/01/09 05:16:52;;;;;;;499.50;217.65;;;;;;;0.94;45.70;99011.06;4430447;32;20273;-75
2022/01/09 05:19:21;;;;;;;485.50;205.53;;;;;;;0.82;46.47;99013.94;4429889;32;20303;-74
2022/01/09 05:21:49;;;;;;;484.80;204.38;;;;;;;0.83;45.73;99015.72;4437118;32;20310;-74
2022/01/09 05:24:16;;;;;;;489.80;209.62;;;;;;;0.73;46.03;99016.13;4411804;32;20301;-74
2022/01/09 05:26:43;;;;;;;500.35;208.25;;;;;;;0.82;46.09;99003.75;4432750;32;20294;-75
2022/01/09 05:29:10;;;;;;;545.53;212.80;;;;;;;0.70;45.71;99008.34;4431274;32;20269;-74
2022/01/09 05:31:37;;;;;;;552.08;211.40;;;;;;;0.75;45.69;99011.97;4405887;32;20273;-74
2022/01/09 05:34:05;;;;;;;533.40;213.62;;;;;;;0.70;45.24;99013.44;4398882;32;20574;-75
2022/01/09 05:36:32;;;;;;;539.37;209.33;;;;;;;0.59;45.08;99014.69;4403658;32;20293;-75
2022/01/09 05:38:59;;;;;;;562.83;212.23;;;;;;;0.71;45.04;99010.13;4403093;32;20652;-75
2022/01/09 05:41:26;;;;;;;558.12;207.05;;;;;;;0.19;46.55;99010.41;4422660;32;20569;-75
2022/01/09 05:43:53;;;;;;;538.45;209.87;;;;;;;0.38;46.02;99004.44;4409354;32;20283;-74
2022/01/09 05:46:20;;;;;;;540.47;213.90;;;;;;;0.75;45.16;98998.38;4421250;32;20617;-74
2022/01/09 05:48:47;;;;;;;519.00;211.70;;;;;;;0.45;45.57;99002.25;4399617;32;20352;-75
2022/01/09 05:51:14;;;;;;;507.95;206.43;;;;;;;0.83;45.02;98999.53;4405052;32;20281;-74
2022/01/09 05:53:41;;;;;;;510.83;213.75;;;;;;;1.03;44.39;98995.28;4398135;32;20287;-74
2022/01/09 05:56:08;;;;;;;499.42;208.52;;;;;;;0.82;45.28;98991.03;4411061;32;20291;-74
2022/01/09 05:58:36;;;;;;;492.83;207.18;;;;;;;0.87;44.67;98987.00;4398480;32;20280;-74
2022/01/09 06:01:03;;;;;;;494.02;205.77;;;;;;;0.89;45.04;98985.41;4406265;32;20274;-74
2022/01/09 06:03:31;;;;;;;506.48;209.02;;;;;;;0.65;44.91;98994.56;4437105;32;20298;-74
2022/01/09 06:05:58;;;;;;;569.13;216.27;;;;;;;0.40;45.78;98993.53;4437020;32;20282;-74
2022/01/09 06:08:25;;;;;;;0.08;0.08;;;;;;;0.51;45.34;98995.66;4410171;32;20319;-75
2022/01/09 06:10:53;;;;;;;0.10;0.10;;;;;;;0.08;46.44;98993.84;4432225;32;20268;-74
2022/01/09 06:13:20;;;;;;;0.52;0.52;;;;;;;0.48;45.53;98986.25;4389843;32;20694;-74
2022/01/09 06:15:46;;;;;;;0.40;0.40;;;;;;;0.34;45.96;98994.94;4415549;32;20293;-74
2022/01/09 06:18:18;;;;;;;0.75;0.75;;;;;;;0.34;46.26;98995.81;4415195;32;20390;-74
2022/01/09 06:20:46;;;;;;;0.80;0.80;;;;;;;0.23;45.79;98987.72;4415363;32;20287;-74
2022/01/09 06:23:16;;;;;;;1.07;1.07;;;;;;;0.31;45.44;98982.97;4439576;32;20273;-74
2022/01/09 06:25:43;;;;;;;1.95;1.85;;;;;;;0.14;46.01;98983.94;4412514;32;20294;-75
2022/01/09 06:28:09;;;;;;;1.10;1.10;;;;;;;-0.08;46.66;98985.53;4410197;32;20673;-74
2022/01/09 06:30:37;;;;;;;1.10;1.10;;;;;;;0.02;46.03;98993.56;4404690;32;20293;-73
2022/01/09 06:33:04;;;;;;;1.83;1.73;;;;;;;0.03;46.39;98990.19;4399837;32;20343;-74
2022/01/09 06:35:32;;;;;;;0.90;0.90;;;;;;;0.18;45.81;98980.69;4400146;32;20331;-75
2022/01/09 06:38:00;;;;;;;0.73;0.73;;;;;;;-0.14;46.66;98992.88;4423665;32;20297;-75
2022/01/09 06:40:27;;;;;;;1.50;1.50;;;;;;;-0.11;46.64;98998.09;4400017;32;20267;-75
2022/01/09 06:42:54;;;;;;;0.97;0.97;;;;;;;-0.10;46.96;98994.75;4400052;32;20267;-74
2022/01/09 06:45:23;;;;;;;1.25;1.25;;;;;;;0.02;46.65;99003.75;4399706;32;20336;-75
2022/01/09 06:47:51;;;;;;;2.15;2.05;;;;;;;-0.30;47.42;99008.25;4423615;32;21186;-75
2022/01/09 06:50:18;;;;;;;1.37;1.37;;;;;;;0.01;46.80;98996.91;4398782;32;20285;-74
2022/01/09 06:52:45;;;;;;;2.10;2.00;;;;;;;-0.08;47.23;98998.25;4399475;32;20267;-74
2022/01/09 06:55:13;;;;;;;1.85;1.75;;;;;;;0.33;45.63;98991.53;4399938;32;20325;-75
2022/01/09 06:57:40;;;;;;;1.98;1.87;;;;;;;0.25;46.01;98984.38;4399588;32;20294;-74
2022/01/09 07:00:11;;;;;;;1.70;1.60;;;;;;;0.13;46.68;98987.28;4401779;32;20316;-74
2022/01/09 07:02:39;;;;;;;2.05;1.95;;;;;;;0.67;45.13;98987.84;4428827;32;20334;-74
2022/01/09 07:05:07;;;;;;;2.20;2.10;;;;;;;0.67;45.01;98990.41;4399703;32;20334;-74
2022/01/09 07:07:34;;;;;;;2.50;2.40;;;;;;;0.56;45.53;98999.28;4399209;32;20286;-73
2022/01/09 07:10:01;;;;;;;1.20;1.20;;;;;;;0.71;45.61;98999.94;4412625;32;20317;-73
2022/01/09 07:12:28;;;;;;;0.90;0.90;;;;;;;1.10;44.42;99004.91;4406368;32;20338;-75
2022/01/09 07:14:55;;;;;;;0.90;0.90;;;;;;;1.27;44.16;98998.75;4399273;32;20275;-75
2022/01/09 07:17:22;;;;;;;0.73;0.73;;;;;;;1.57;43.78;98999.09;4399717;32;20350;-80
2022/01/09 07:19:50;;;;;;;0.77;0.77;;;;;;;1.37;44.67;99000.88;4432990;32;20261;-75
2022/01/09 07:22:17;;;;;;;0.93;0.93;;;;;;;1.52;44.24;98990.38;4412497;32;20339;-76
2022/01/09 07:24:44;;;;;;;0.62;0.62;;;;;;;1.80;43.87;99002.50;4409602;32;20629;-74
2022/01/09 07:27:11;;;;;;;1.00;1.00;;;;;;;1.61;44.52;99000.09;4401045;32;20300;-75
2022/01/09 07:29:38;;;;;;;0.90;0.90;;;;;;;1.57;44.76;98993.13;4418294;32;20267;-73
2022/01/09 07:32:05;;;;;;;0.40;0.40;;;;;;;1.69;44.71;98992.69;4405952;32;20334;-74
2022/01/09 07:34:32;;;;;;;0.75;0.75;;;;;;;1.56;44.95;98991.38;4409843;32;20331;-77
2022/01/09 07:36:59;;;;;;;0.50;0.50;;;;;;;2.01;44.06;98991.34;4414311;32;20308;-73
2022/01/09 07:39:28;;;;;;;0.50;0.50;;;;;;;1.58;45.22;98984.66;4414516;32;20269;-76
2022/01/09 07:41:57;;;;;;;0.90;0.90;;;;;;;1.52;45.26;98984.44;4414553;32;20430;-75
2022/01/09 07:44:26;;;;;;;0.70;0.70;;;;;;;1.68;44.98;98976.53;4409110;32;20274;-76
2022/01/09 07:47:04;;;;;;;0.70;0.70;;;;;;;1.56;45.31;98976.06;4413411;32;20883;-75
2022/01/09 07:49:31;;;;;;;1.40;1.40;;;;;;;1.83;45.17;98966.91;4412784;32;20282;-75
2022/01/09 07:51:58;;;;;;;0.82;0.82;;;;;;;2.02;44.83;98967.56;4406770;32;20284;-74
2022/01/09 07:54:25;;;;;;;0.90;0.90;;;;;;;2.13;45.03;98976.47;4409301;32;20677;-76
2022/01/09 07:56:53;;;;;;;0.73;0.73;;;;;;;1.97;45.88;98969.06;4410138;32;20282;-75
2022/01/09 07:59:21;;;;;;;0.60;0.60;;;;;;;1.96;46.40;98983.53;4413165;32;20258;-76
2022/01/09 08:01:50;;;;;;;0.70;0.70;;;;;;;2.04;46.26;98976.12;4413750;32;20286;-75
2022/01/09 08:04:17;;;;;;;0.60;0.60;;;;;;;2.25;46.43;98982.00;4414109;32;20270;-74
2022/01/09 08:06:44;;;;;;;0.47;0.47;;;;;;;2.17;47.22;98978.34;4409496;32;20299;-74
2022/01/09 08:09:11;;;;;;;0.30;0.30;;;;;;;2.29;47.79;98983.84;4412452;32;20286;-75
2022/01/09 08:11:38;;;;;;;0.00;0.00;;;;;;;2.58;47.38;98971.19;4412566;32;20611;-75
2022/01/09 08:14:05;;;;;;;;;;;;;;;2.73;47.58;98966.59;4412759;32;20331;-75
2022/01/09 08:16:31;;;;;;;;;;;;;;;3.05;47.38;98965.91;4413539;32;20692;-75
2022/01/09 08:18:58;;;;;;;;;;;;;;;3.21;47.10;98966.44;4408411;32;19977;-75
2022/01/09 08:21:44;;;;;;;;;;;;;;;3.26;47.07;98970.03;4408111;32;20021;-75
2022/01/09 08:24:14;;;;;;;;;;;;;;;3.58;46.58;98962.44;4415236;32;19981;-75
2022/01/09 08:26:41;;;;;;;;;;;;;;;3.60;46.12;98955.66;4414524;32;20071;-76
2022/01/09 08:29:08;;;;;;;;;;;;;;;3.75;45.88;98954.41;4413558;32;20018;-77
2022/01/09 08:31:38;;;;;;;;;;;;;;;3.61;46.18;98961.69;4390744;32;783350;-77
2022/01/09 08:34:05;;;;;;;;;;;;;;;3.55;46.96;98962.38;4414799;32;20039;-77
2022/01/09 08:36:34;;;;;;;;;;;;;;;3.81;46.54;98959.69;4413494;32;20052;-76
2022/01/09 08:39:02;;;;;;;;;;;;;;;4.04;46.54;98963.75;4430418;32;19982;-76
2022/01/09 08:41:29;;;;;;;;;;;;;;;4.13;46.27;98971.69;4400695;32;19990;-77
2022/01/09 08:43:56;;;;;;;;;;;;;;;4.24;46.61;98982.22;4400761;32;20699;-77
2022/01/09 08:46:23;;;;;;;;;;;;;;;4.07;46.58;98993.72;4400192;32;20725;-75
2022/01/09 08:48:49;;;;;;;;;;;;;;;4.54;45.64;98977.06;4402340;32;20335;-77
2022/01/09 08:51:17;;;;;;;;;;;;;;;4.74;45.47;98974.16;4406811;32;19990;-77
2022/01/09 08:53:50;;;;;;;;;;;;;;;4.79;45.29;98978.56;4400597;32;20328;-77
2022/01/09 08:56:18;;;;;;;;;;;;;;;4.76;45.88;98972.50;4409060;32;19994;-77
2022/01/09 08:58:45;;;;;;;;;;;;;;;4.78;45.40;98975.94;4400098;32;20030;-76
2022/01/09 09:01:32;;;;;;;;;;;;;;;4.77;45.33;98974.22;4400384;32;20013;-78
2022/01/09 09:03:59;;;;;;;;;;;;;;;4.84;45.31;98970.97;4432467;32;20042;-78
2022/01/09 09:06:26;;;;;;;;;;;;;;;4.93;44.79;98970.34;4401353;32;20347;-80
2022/01/09 09:08:52;;;;;;;;;;;;;;;4.79;45.52;98967.44;4406948;32;19985;-78
2022/01/09 09:11:19;;;;;;;;;;;;;;;4.77;45.99;98963.97;4399867;32;19996;-79
2022/01/09 09:13:46;;;;;;;;;;;;;;;4.60;47.01;98964.41;4400431;32;20065;-79
2022/01/09 09:16:14;;;;;;;;;;;;;;;4.57;47.23;98966.91;4432641;32;19998;-79
2022/01/09 09:18:43;;;;;;;;;;;;;;;4.58;47.49;98971.19;4424233;32;20028;-78
2022/01/09 09:21:10;;;;;;;;;;;;;;;4.97;45.94;98974.72;4421861;32;19990;-78
2022/01/09 09:23:36;;;;;;;;;;;;;;;5.08;45.62;98975.84;4401271;32;20009;-78
2022/01/09 09:26:04;;;;;;;;;;;;;;;4.94;46.02;98988.31;4404612;32;20037;-80
2022/01/09 09:28:30;;;;;;;;;;;;;;;4.38;47.69;98985.19;4404207;32;19990;-81
2022/01/09 09:31:02;;;;;;;;;;;;;;;4.49;48.01;98982.88;4408531;32;20275;-80
2022/01/09 09:33:29;;;;;;;;;;;;;;;4.96;46.35;98986.66;4400325;32;20480;-79
2022/01/09 09:36:00;;;;;;;;;;;;;;;5.04;45.81;98984.28;4401465;32;19990;-79
2022/01/09 09:38:27;;;;;;;;;;;;;;;4.97;46.18;98983.25;4421385;32;19992;-79
2022/01/09 09:40:54;;;;;;;;;;;;;;;4.76;46.76;98986.19;4400029;32;20292;-78
2022/01/09 09:43:22;;;;;;;;;;;;;;;4.56;47.15;98984.78;4423406;32;20032;-79
2022/01/09 09:45:49;;;;;;;;;;;;;;;4.42;47.97;98985.28;4424832;32;19998;-80
2022/01/09 09:48:16;;;;;;;;;;;;;;;4.71;47.56;98984.31;4427646;32;20328;-80
2022/01/09 09:50:43;;;;;;;;;;;;;;;4.46;48.15;98987.94;4408734;32;19990;-80
2022/01/09 09:53:10;;;;;;;;;;;;;;;4.42;47.81;98987.00;4401780;32;20352;-78
2022/01/09 09:55:37;;;;;;;;;;;;;;;3.99;48.57;98983.25;4410094;32;20000;-79
2022/01/09 09:58:04;;;;;;;;;;;;;;;3.86;48.90;98983.72;4401880;32;19982;-80
2022/01/09 10:00:33;;;;;;;;;;;;;;;3.80;49.33;98996.31;4401737;32;20000;-80
2022/01/09 10:03:01;;;;;;;;;;;;;;;3.93;49.40;98996.75;4405421;32;19989;-79
2022/01/09 10:05:32;;;;;;;;;;;;;;;3.62;49.74;99002.66;4408588;32;19982;-78
2022/01/09 10:08:09;;;;;;;;;;;;;;;3.80;49.21;98999.78;4401772;32;20317;-81
2022/01/09 10:10:37;;;;;;;;;;;;;;;4.39;48.45;98994.59;4409350;32;19997;-78
2022/01/09 10:13:08;;;;;;;;;;;;;;;4.50;48.07;99000.88;4419795;32;20003;-81
2022/01/09 10:15:50;;;;;;;;;;;;;;;4.52;47.79;99001.78;4419376;32;20020;-79
2022/01/09 10:18:35;;;;;;;;;;;;;;;4.42;48.06;98997.25;4421258;32;20027;-77
2022/01/09 10:21:06;;;;;;;;;;;;;;;4.29;47.84;98996.03;4429904;32;20035;-77
2022/01/09 10:23:33;;;;;;;;;;;;;;;4.10;48.76;99002.34;4424689;32;19985;-76
2022/01/09 10:26:12;;;;;;;;;;;;;;;4.12;48.53;98992.16;4438673;32;20031;-80
2022/01/09 10:28:39;;;;;;;;;;;;;;;4.11;48.71;98996.38;4424674;32;20046;-79
2022/01/09 10:31:17;;;;;;;;;;;;;;;4.16;48.51;98993.97;4418715;32;20043;-78
2022/01/09 10:34:02;;;;;;;;;;;;;;;4.41;48.46;98987.81;4440566;32;20339;-78
2022/01/09 10:36:39;;;;;;;;;;;;;;;4.43;48.79;98989.59;4417044;32;20312;-76
2022/01/09 10:39:10;;;;;;;;;;;;;;;4.15;48.66;98977.75;4418150;32;19974;-79
2022/01/09 10:41:51;;;;;;;;;;;;;;;4.18;49.06;98982.94;4423379;32;19998;-77
2022/01/09 10:44:19;;;;;;;;;;;;;;;4.42;48.99;98976.75;4448030;32;20042;-78
2022/01/09 10:46:57;;;;;;;;;;;;;;;4.64;48.42;98963.66;4417353;32;19993;-77
2022/01/09 10:49:24;;;;;;;;;;;;;;;4.97;47.94;98954.19;4434611;32;20696;-76
2022/01/09 10:51:51;;;;;;;;;;;;;;;4.94;47.75;98952.41;4413965;32;20041;-78
2022/01/09 10:54:30;;;;;;;;;;;;;;;4.39;48.77;98951.03;4409849;32;19989;-78
2022/01/09 10:57:10;;;;;;;;;;;;;;;4.13;49.81;98953.78;4424971;32;20004;-79
2022/01/09 10:59:37;;;;;;;;;;;;;;;4.40;49.38;98955.31;4403635;32;19990;-80
2022/01/09 11:02:05;;;;;;;;;;;;;;;4.70;48.24;98942.44;4409739;32;19991;-79
2022/01/09 11:04:32;;;;;;;;;;;;;;;4.57;48.60;98940.41;4411415;32;19990;-80
2022/01/09 11:06:58;;;;;;;;;;;;;;;4.69;48.73;98942.37;4413747;32;20005;-78
2022/01/09 11:09:27;;;;;;;;;;;;;;;5.17;47.50;98944.41;4426815;32;20019;-81
2022/01/09 11:11:54;;;;;;;;;;;;;;;5.05;47.56;98935.59;4409818;32;20001;-80
2022/01/09 11:14:23;;;;;;;;;;;;;;;5.08;47.92;98930.53;4425147;32;20052;-78
2022/01/09 11:16:51;;;;;;;;;;;;;;;5.12;47.29;98927.22;4424441;32;20025;-76
2022/01/09 11:19:19;;;;;;;;;;;;;;;4.97;47.45;98926.84;4401216;32;20032;-77
2022/01/09 11:21:47;;;;;;;;;;;;;;;4.73;48.16;98931.41;4401233;32;20032;-81
2022/01/09 11:24:37;;;;;;;;;;;;;;;5.39;47.08;98931.22;4424395;32;20332;-79
2022/01/09 11:27:07;;;;;;;;;;;;;;;5.31;47.26;98932.75;4400771;32;19982;-80
2022/01/09 11:29:41;;;;;;;;;;;;;;;5.19;47.22;98929.91;4408543;32;19995;-76
2022/01/09 11:32:29;;;;;;;;;;;;;;;5.31;46.44;98932.75;4422336;32;19978;-76
2022/01/09 11:35:14;;;;;;;;;;;;;;;5.36;46.01;98926.91;4404077;32;20418;-78
2022/01/09 11:37:57;;;;;;;;;;;;;;;4.90;46.80;98925.84;4413136;32;19993;-77
2022/01/09 11:40:26;;;;;;;;;;;;;;;5.38;45.78;98926.94;4405237;32;19974;-76
2022/01/09 11:43:09;;;;;;;;;;;;;;;5.16;46.55;98932.41;4425020;32;20379;-75
2022/01/09 11:45:39;;;;;;;;;;;;;;;5.20;45.84;98931.63;4401077;32;19998;-79
2022/01/09 11:48:06;;;;;;;;;;;;;;;4.86;47.17;98925.75;4403161;32;20002;-78
2022/01/09 11:50:34;;;;;;;;;;;;;;;5.04;46.72;98918.50;4425111;32;19978;-77
2022/01/09 11:53:01;;;;;;;;;;;;;;;5.23;46.31;98918.87;4427112;32;19993;-80
2022/01/09 11:55:36;;;;;;;;;;;;;;;5.14;46.78;98919.56;4416118;32;19989;-76
2022/01/09 11:58:08;;;;;;;;;;;;;;;5.40;46.51;98921.84;4415946;32;20080;-80
2022/01/09 12:00:42;;;;;;;;;;;;;;;5.35;45.75;98919.16;4414344;32;19986;-78
2022/01/09 12:03:27;;;;;;;;;;;;;;;5.56;45.71;98914.50;4409192;32;19986;-78
2022/01/09 12:06:02;;;;;;;;;;;;;;;5.48;45.61;98910.03;4416173;32;20002;-76
2022/01/09 12:08:48;;;;;;;;;;;;;;;5.12;46.19;98901.56;4416192;32;20004;-76